sensor_id;sensor_type;location;lat;lon;timestamp;temperature;humidity
10492;DHT22;5293;51.464;-2.566;2023-04-16T00:00:41;10.70;99.90
10492;DHT22;5293;51.464;-2.566;2023-04-16T00:03:07;10.70;99.90
10492;DHT22;5293;51.464;-2.566;2023-04-16T00:05:32;10.70;99.90
10492;DHT22;5293;51.464;-2.566;2023-04-16T00:07:58;10.70;99.90
10492;DHT22;5293;51.464;-2.566;2023-04-16T00:10:24;10.70;99.90
10492;DHT22;5293;51.464;-2.566;2023-04-16T00:12:49;10.60;99.90
10492;DHT22;5293;51.464;-2.566;2023-04-16T00:15:15;10.60;99.90
10492;DHT22;5293;51.464;-2.566;2023-04-16T00:17:41;10.60;99.90
10492;DHT22;5293;51.464;-2.566;2023-04-16T00:20:07;10.60;99.90
10492;DHT22;5293;51.464;-2.566;2023-04-16T00:22:33;10.60;99.90
10492;DHT22;5293;51.464;-2.566;2023-04-16T00:24:59;10.60;99.90
10492;DHT22;5293;51.464;-2.566;2023-04-16T00:27:24;10.60;99.90
10492;DHT22;5293;51.464;-2.566;2023-04-16T00:29:50;10.60;99.90
10492;DHT22;5293;51.464;-2.566;2023-04-16T00:32:16;10.50;99.90
10492;DHT22;5293;51.464;-2.566;2023-04-16T00:34:42;10.50;99.90
10492;DHT22;5293;51.464;-2.566;2023-04-16T00:37:07;10.60;99.90
10492;DHT22;5293;51.464;-2.566;2023-04-16T00:39:33;10.60;99.90
10492;DHT22;5293;51.464;-2.566;2023-04-16T00:41:58;10.60;99.90
10492;DHT22;5293;51.464;-2.566;2023-04-16T00:44:24;10.60;99.90
10492;DHT22;5293;51.464;-2.566;2023-04-16T00:46:50;10.60;99.90
10492;DHT22;5293;51.464;-2.566;2023-04-16T00:49:16;10.60;99.90
10492;DHT22;5293;51.464;-2.566;2023-04-16T00:51:41;10.50;99.90
10492;DHT22;5293;51.464;-2.566;2023-04-16T00:54:07;10.50;99.90
10492;DHT22;5293;51.464;-2.566;2023-04-16T00:56:34;10.50;99.90
10492;DHT22;5293;51.464;-2.566;2023-04-16T00:59:00;10.50;99.90
10492;DHT22;5293;51.464;-2.566;2023-04-16T01:01:25;10.50;99.90
10492;DHT22;5293;51.464;-2.566;2023-04-16T01:03:51;10.50;99.90
10492;DHT22;5293;51.464;-2.566;2023-04-16T01:06:17;10.50;99.90
10492;DHT22;5293;51.464;-2.566;2023-04-16T01:08:44;10.50;99.90
10492;DHT22;5293;51.464;-2.566;2023-04-16T01:11:10;10.50;99.90
10492;DHT22;5293;51.464;-2.566;2023-04-16T01:13:36;10.50;99.90
10492;DHT22;5293;51.464;-2.566;2023-04-16T01:16:06;10.50;99.90
10492;DHT22;5293;51.464;-2.566;2023-04-16T01:18:32;10.50;99.90
10492;DHT22;5293;51.464;-2.566;2023-04-16T01:20:58;10.50;99.90
10492;DHT22;5293;51.464;-2.566;2023-04-16T01:23:23;10.50;99.90
10492;DHT22;5293;51.464;-2.566;2023-04-16T01:25:49;10.50;99.90
10492;DHT22;5293;51.464;-2.566;2023-04-16T01:28:15;10.40;99.90
10492;DHT22;5293;51.464;-2.566;2023-04-16T01:30:41;10.40;99.90
10492;DHT22;5293;51.464;-2.566;2023-04-16T01:33:11;10.40;99.90
10492;DHT22;5293;51.464;-2.566;2023-04-16T01:35:37;10.40;99.90
10492;DHT22;5293;51.464;-2.566;2023-04-16T01:38:04;10.50;99.90
10492;DHT22;5293;51.464;-2.566;2023-04-16T01:40:31;10.50;99.90
10492;DHT22;5293;51.464;-2.566;2023-04-16T01:42:56;10.50;99.90
10492;DHT22;5293;51.464;-2.566;2023-04-16T01:45:22;10.40;99.90
10492;DHT22;5293;51.464;-2.566;2023-04-16T01:47:49;10.40;99.90
10492;DHT22;5293;51.464;-2.566;2023-04-16T01:50:16;10.50;99.90
10492;DHT22;5293;51.464;-2.566;2023-04-16T01:52:42;10.50;99.90
10492;DHT22;5293;51.464;-2.566;2023-04-16T01:55:08;10.50;99.90
10492;DHT22;5293;51.464;-2.566;2023-04-16T01:57:34;10.50;99.90
10492;DHT22;5293;51.464;-2.566;2023-04-16T01:59:59;10.50;99.90
10492;DHT22;5293;51.464;-2.566;2023-04-16T02:02:25;10.50;99.90
10492;DHT22;5293;51.464;-2.566;2023-04-16T02:04:53;10.50;99.90
10492;DHT22;5293;51.464;-2.566;2023-04-16T02:07:19;10.50;99.90
10492;DHT22;5293;51.464;-2.566;2023-04-16T02:09:45;10.50;99.90
10492;DHT22;5293;51.464;-2.566;2023-04-16T02:12:11;10.50;99.90
10492;DHT22;5293;51.464;-2.566;2023-04-16T02:14:36;10.60;99.90
10492;DHT22;5293;51.464;-2.566;2023-04-16T02:17:02;10.60;99.90
10492;DHT22;5293;51.464;-2.566;2023-04-16T02:19:29;10.50;99.90
10492;DHT22;5293;51.464;-2.566;2023-04-16T02:21:54;10.50;99.90
10492;DHT22;5293;51.464;-2.566;2023-04-16T02:24:20;10.50;99.90
10492;DHT22;5293;51.464;-2.566;2023-04-16T02:26:46;10.50;99.90
10492;DHT22;5293;51.464;-2.566;2023-04-16T02:29:12;10.40;99.90
10492;DHT22;5293;51.464;-2.566;2023-04-16T02:31:38;10.50;99.90
10492;DHT22;5293;51.464;-2.566;2023-04-16T02:34:04;10.50;99.90
10492;DHT22;5293;51.464;-2.566;2023-04-16T02:36:30;10.50;99.90
10492;DHT22;5293;51.464;-2.566;2023-04-16T02:38:59;10.50;99.90
10492;DHT22;5293;51.464;-2.566;2023-04-16T02:41:25;10.50;99.90
10492;DHT22;5293;51.464;-2.566;2023-04-16T02:43:51;10.50;99.90
10492;DHT22;5293;51.464;-2.566;2023-04-16T02:46:17;10.50;99.90
10492;DHT22;5293;51.464;-2.566;2023-04-16T02:48:42;10.50;99.90
10492;DHT22;5293;51.464;-2.566;2023-04-16T02:51:08;10.50;99.90
10492;DHT22;5293;51.464;-2.566;2023-04-16T02:53:33;10.60;99.90
10492;DHT22;5293;51.464;-2.566;2023-04-16T02:55:59;10.60;99.90
10492;DHT22;5293;51.464;-2.566;2023-04-16T02:58:26;10.60;99.90
10492;DHT22;5293;51.464;-2.566;2023-04-16T03:00:52;10.60;99.90
10492;DHT22;5293;51.464;-2.566;2023-04-16T03:03:19;10.50;99.90
10492;DHT22;5293;51.464;-2.566;2023-04-16T03:05:45;10.50;99.90
10492;DHT22;5293;51.464;-2.566;2023-04-16T03:08:11;10.50;99.90
10492;DHT22;5293;51.464;-2.566;2023-04-16T03:10:37;10.50;99.90
10492;DHT22;5293;51.464;-2.566;2023-04-16T03:13:03;10.50;99.90
10492;DHT22;5293;51.464;-2.566;2023-04-16T03:15:30;10.50;99.90
10492;DHT22;5293;51.464;-2.566;2023-04-16T03:17:56;10.50;99.90
10492;DHT22;5293;51.464;-2.566;2023-04-16T03:20:22;10.50;99.90
10492;DHT22;5293;51.464;-2.566;2023-04-16T03:22:48;10.50;99.90
10492;DHT22;5293;51.464;-2.566;2023-04-16T03:25:14;10.60;99.90
10492;DHT22;5293;51.464;-2.566;2023-04-16T03:27:40;10.50;99.90
10492;DHT22;5293;51.464;-2.566;2023-04-16T03:30:06;10.50;99.90
10492;DHT22;5293;51.464;-2.566;2023-04-16T03:32:32;10.50;99.90
10492;DHT22;5293;51.464;-2.566;2023-04-16T03:34:58;10.50;99.90
10492;DHT22;5293;51.464;-2.566;2023-04-16T03:37:24;10.60;99.90
10492;DHT22;5293;51.464;-2.566;2023-04-16T03:39:49;10.60;99.90
10492;DHT22;5293;51.464;-2.566;2023-04-16T03:42:15;10.60;99.90
10492;DHT22;5293;51.464;-2.566;2023-04-16T03:44:41;10.60;99.90
10492;DHT22;5293;51.464;-2.566;2023-04-16T03:47:07;10.60;99.90
10492;DHT22;5293;51.464;-2.566;2023-04-16T03:49:32;10.60;99.90
10492;DHT22;5293;51.464;-2.566;2023-04-16T03:51:58;10.60;99.90
10492;DHT22;5293;51.464;-2.566;2023-04-16T03:54:23;10.60;99.90
10492;DHT22;5293;51.464;-2.566;2023-04-16T03:56:49;10.60;99.90
10492;DHT22;5293;51.464;-2.566;2023-04-16T03:59:16;10.60;99.90
10492;DHT22;5293;51.464;-2.566;2023-04-16T04:01:42;10.60;99.90
10492;DHT22;5293;51.464;-2.566;2023-04-16T04:04:08;10.60;99.90
10492;DHT22;5293;51.464;-2.566;2023-04-16T04:06:34;10.50;99.90
10492;DHT22;5293;51.464;-2.566;2023-04-16T04:09:00;10.50;99.90
10492;DHT22;5293;51.464;-2.566;2023-04-16T04:11:25;10.50;99.90
10492;DHT22;5293;51.464;-2.566;2023-04-16T04:13:51;10.50;99.90
10492;DHT22;5293;51.464;-2.566;2023-04-16T04:16:17;10.50;99.90
10492;DHT22;5293;51.464;-2.566;2023-04-16T04:18:42;10.40;99.90
10492;DHT22;5293;51.464;-2.566;2023-04-16T04:21:08;10.40;99.90
10492;DHT22;5293;51.464;-2.566;2023-04-16T04:23:35;10.50;99.90
10492;DHT22;5293;51.464;-2.566;2023-04-16T04:26:01;10.40;99.90
10492;DHT22;5293;51.464;-2.566;2023-04-16T04:28:31;10.40;99.90
10492;DHT22;5293;51.464;-2.566;2023-04-16T04:30:57;10.50;99.90
10492;DHT22;5293;51.464;-2.566;2023-04-16T04:33:27;10.50;99.90
10492;DHT22;5293;51.464;-2.566;2023-04-16T04:35:53;10.40;99.90
10492;DHT22;5293;51.464;-2.566;2023-04-16T04:38:19;10.40;99.90
10492;DHT22;5293;51.464;-2.566;2023-04-16T04:40:47;10.40;99.90
10492;DHT22;5293;51.464;-2.566;2023-04-16T04:43:13;10.40;99.90
10492;DHT22;5293;51.464;-2.566;2023-04-16T04:45:39;10.40;99.90
10492;DHT22;5293;51.464;-2.566;2023-04-16T04:48:05;10.40;99.90
10492;DHT22;5293;51.464;-2.566;2023-04-16T04:50:31;10.40;99.90
10492;DHT22;5293;51.464;-2.566;2023-04-16T04:52:56;10.50;99.90
10492;DHT22;5293;51.464;-2.566;2023-04-16T04:55:22;10.40;99.90
10492;DHT22;5293;51.464;-2.566;2023-04-16T04:57:48;10.40;99.90
10492;DHT22;5293;51.464;-2.566;2023-04-16T05:00:14;10.40;99.90
10492;DHT22;5293;51.464;-2.566;2023-04-16T05:02:40;10.40;99.90
10492;DHT22;5293;51.464;-2.566;2023-04-16T05:05:06;10.30;99.90
10492;DHT22;5293;51.464;-2.566;2023-04-16T05:07:32;10.30;99.90
10492;DHT22;5293;51.464;-2.566;2023-04-16T05:09:58;10.30;99.90
10492;DHT22;5293;51.464;-2.566;2023-04-16T05:12:23;10.30;99.90
10492;DHT22;5293;51.464;-2.566;2023-04-16T05:14:49;10.20;99.90
10492;DHT22;5293;51.464;-2.566;2023-04-16T05:17:15;10.20;99.90
10492;DHT22;5293;51.464;-2.566;2023-04-16T05:19:40;10.10;99.90
10492;DHT22;5293;51.464;-2.566;2023-04-16T05:22:06;10.10;99.90
10492;DHT22;5293;51.464;-2.566;2023-04-16T05:24:32;10.10;99.90
10492;DHT22;5293;51.464;-2.566;2023-04-16T05:26:58;10.10;99.90
10492;DHT22;5293;51.464;-2.566;2023-04-16T05:29:23;10.10;99.90
10492;DHT22;5293;51.464;-2.566;2023-04-16T05:31:49;10.10;99.90
10492;DHT22;5293;51.464;-2.566;2023-04-16T05:34:15;10.10;99.90
10492;DHT22;5293;51.464;-2.566;2023-04-16T05:36:40;10.20;99.90
10492;DHT22;5293;51.464;-2.566;2023-04-16T05:39:06;10.20;99.90
10492;DHT22;5293;51.464;-2.566;2023-04-16T05:41:32;10.20;99.90
10492;DHT22;5293;51.464;-2.566;2023-04-16T05:43:58;10.20;99.90
10492;DHT22;5293;51.464;-2.566;2023-04-16T05:46:24;10.20;99.90
10492;DHT22;5293;51.464;-2.566;2023-04-16T05:48:50;10.20;99.90
10492;DHT22;5293;51.464;-2.566;2023-04-16T05:51:15;10.20;99.90
10492;DHT22;5293;51.464;-2.566;2023-04-16T05:53:41;10.20;99.90
10492;DHT22;5293;51.464;-2.566;2023-04-16T05:56:07;10.10;99.90
10492;DHT22;5293;51.464;-2.566;2023-04-16T05:58:33;10.10;99.90
10492;DHT22;5293;51.464;-2.566;2023-04-16T06:00:59;10.10;99.90
10492;DHT22;5293;51.464;-2.566;2023-04-16T06:03:26;10.10;99.90
10492;DHT22;5293;51.464;-2.566;2023-04-16T06:05:52;10.10;99.90
10492;DHT22;5293;51.464;-2.566;2023-04-16T06:08:17;10.20;99.90
10492;DHT22;5293;51.464;-2.566;2023-04-16T06:10:45;10.20;99.90
10492;DHT22;5293;51.464;-2.566;2023-04-16T06:13:11;10.20;99.90
10492;DHT22;5293;51.464;-2.566;2023-04-16T06:15:37;10.20;99.90
10492;DHT22;5293;51.464;-2.566;2023-04-16T06:18:03;10.20;99.90
10492;DHT22;5293;51.464;-2.566;2023-04-16T06:20:28;10.20;99.90
10492;DHT22;5293;51.464;-2.566;2023-04-16T06:22:55;10.20;99.90
10492;DHT22;5293;51.464;-2.566;2023-04-16T06:25:20;10.30;99.90
10492;DHT22;5293;51.464;-2.566;2023-04-16T06:27:46;10.30;99.90
10492;DHT22;5293;51.464;-2.566;2023-04-16T06:30:13;10.40;99.90
10492;DHT22;5293;51.464;-2.566;2023-04-16T06:32:39;10.50;99.90
10492;DHT22;5293;51.464;-2.566;2023-04-16T06:35:05;10.50;99.90
10492;DHT22;5293;51.464;-2.566;2023-04-16T06:37:31;10.60;99.90
10492;DHT22;5293;51.464;-2.566;2023-04-16T06:39:56;10.60;99.90
10492;DHT22;5293;51.464;-2.566;2023-04-16T06:42:22;10.60;99.90
10492;DHT22;5293;51.464;-2.566;2023-04-16T06:44:48;10.60;99.90
10492;DHT22;5293;51.464;-2.566;2023-04-16T06:47:14;10.60;99.90
10492;DHT22;5293;51.464;-2.566;2023-04-16T06:49:40;10.70;99.90
10492;DHT22;5293;51.464;-2.566;2023-04-16T06:52:06;10.60;99.90
10492;DHT22;5293;51.464;-2.566;2023-04-16T06:54:32;10.60;99.90
10492;DHT22;5293;51.464;-2.566;2023-04-16T06:56:58;10.70;99.90
10492;DHT22;5293;51.464;-2.566;2023-04-16T06:59:23;10.70;99.90
10492;DHT22;5293;51.464;-2.566;2023-04-16T07:01:50;10.80;99.90
10492;DHT22;5293;51.464;-2.566;2023-04-16T07:04:16;10.90;99.90
10492;DHT22;5293;51.464;-2.566;2023-04-16T07:06:42;10.90;99.90
10492;DHT22;5293;51.464;-2.566;2023-04-16T07:09:08;10.90;99.90
10492;DHT22;5293;51.464;-2.566;2023-04-16T07:11:35;11.00;99.90
10492;DHT22;5293;51.464;-2.566;2023-04-16T07:14:00;11.00;99.90
10492;DHT22;5293;51.464;-2.566;2023-04-16T07:16:26;11.10;99.90
10492;DHT22;5293;51.464;-2.566;2023-04-16T07:18:52;11.20;99.90
10492;DHT22;5293;51.464;-2.566;2023-04-16T07:21:17;11.20;99.90
10492;DHT22;5293;51.464;-2.566;2023-04-16T07:23:43;11.10;99.90
10492;DHT22;5293;51.464;-2.566;2023-04-16T07:26:09;11.10;99.90
10492;DHT22;5293;51.464;-2.566;2023-04-16T07:28:35;11.10;99.90
10492;DHT22;5293;51.464;-2.566;2023-04-16T07:31:01;11.10;99.90
10492;DHT22;5293;51.464;-2.566;2023-04-16T07:33:27;11.10;99.90
10492;DHT22;5293;51.464;-2.566;2023-04-16T07:35:53;11.10;99.90
10492;DHT22;5293;51.464;-2.566;2023-04-16T07:38:18;11.20;99.90
10492;DHT22;5293;51.464;-2.566;2023-04-16T07:40:44;11.30;99.90
10492;DHT22;5293;51.464;-2.566;2023-04-16T07:43:10;11.30;99.90
10492;DHT22;5293;51.464;-2.566;2023-04-16T07:45:36;11.40;99.90
10492;DHT22;5293;51.464;-2.566;2023-04-16T07:48:01;11.50;99.90
10492;DHT22;5293;51.464;-2.566;2023-04-16T07:50:27;11.70;99.90
10492;DHT22;5293;51.464;-2.566;2023-04-16T07:52:53;11.70;99.90
10492;DHT22;5293;51.464;-2.566;2023-04-16T07:55:18;11.80;99.90
10492;DHT22;5293;51.464;-2.566;2023-04-16T07:57:44;11.90;99.90
10492;DHT22;5293;51.464;-2.566;2023-04-16T08:00:10;12.00;99.90
10492;DHT22;5293;51.464;-2.566;2023-04-16T08:02:36;12.10;99.90
10492;DHT22;5293;51.464;-2.566;2023-04-16T08:05:02;12.10;99.90
10492;DHT22;5293;51.464;-2.566;2023-04-16T08:07:28;12.10;99.90
10492;DHT22;5293;51.464;-2.566;2023-04-16T08:09:53;12.20;99.90
10492;DHT22;5293;51.464;-2.566;2023-04-16T08:12:20;12.20;99.90
10492;DHT22;5293;51.464;-2.566;2023-04-16T08:14:46;12.20;99.90
10492;DHT22;5293;51.464;-2.566;2023-04-16T08:17:13;12.30;99.90
10492;DHT22;5293;51.464;-2.566;2023-04-16T08:19:39;12.30;99.90
10492;DHT22;5293;51.464;-2.566;2023-04-16T08:22:05;12.30;99.90
10492;DHT22;5293;51.464;-2.566;2023-04-16T08:24:31;12.30;99.90
10492;DHT22;5293;51.464;-2.566;2023-04-16T08:26:56;12.40;99.90
10492;DHT22;5293;51.464;-2.566;2023-04-16T08:29:22;12.40;99.90
10492;DHT22;5293;51.464;-2.566;2023-04-16T08:31:54;12.50;99.90
10492;DHT22;5293;51.464;-2.566;2023-04-16T08:34:20;12.50;99.90
10492;DHT22;5293;51.464;-2.566;2023-04-16T08:36:45;12.60;99.90
10492;DHT22;5293;51.464;-2.566;2023-04-16T08:39:11;12.60;99.90
10492;DHT22;5293;51.464;-2.566;2023-04-16T08:41:41;12.70;99.90
10492;DHT22;5293;51.464;-2.566;2023-04-16T08:44:08;12.80;99.90
10492;DHT22;5293;51.464;-2.566;2023-04-16T08:46:36;12.80;99.90
10492;DHT22;5293;51.464;-2.566;2023-04-16T08:49:05;12.80;99.90
10492;DHT22;5293;51.464;-2.566;2023-04-16T08:51:34;12.80;99.90
10492;DHT22;5293;51.464;-2.566;2023-04-16T08:54:05;12.80;99.90
10492;DHT22;5293;51.464;-2.566;2023-04-16T08:56:34;12.70;99.90
10492;DHT22;5293;51.464;-2.566;2023-04-16T08:59:02;12.70;99.90
10492;DHT22;5293;51.464;-2.566;2023-04-16T09:01:33;12.80;99.90
10492;DHT22;5293;51.464;-2.566;2023-04-16T09:03:59;12.80;99.90
10492;DHT22;5293;51.464;-2.566;2023-04-16T09:06:26;12.70;99.90
10492;DHT22;5293;51.464;-2.566;2023-04-16T09:08:53;12.70;99.90
10492;DHT22;5293;51.464;-2.566;2023-04-16T09:11:19;12.70;99.90
10492;DHT22;5293;51.464;-2.566;2023-04-16T09:13:45;12.70;99.90
10492;DHT22;5293;51.464;-2.566;2023-04-16T09:16:12;12.70;99.90
10492;DHT22;5293;51.464;-2.566;2023-04-16T09:18:38;12.80;99.90
10492;DHT22;5293;51.464;-2.566;2023-04-16T09:21:04;12.70;99.90
10492;DHT22;5293;51.464;-2.566;2023-04-16T09:23:32;12.80;99.90
10492;DHT22;5293;51.464;-2.566;2023-04-16T09:25:58;12.70;99.90
10492;DHT22;5293;51.464;-2.566;2023-04-16T09:28:53;12.70;99.90
10492;DHT22;5293;51.464;-2.566;2023-04-16T09:31:19;12.70;99.90
10492;DHT22;5293;51.464;-2.566;2023-04-16T09:34:13;12.70;99.90
10492;DHT22;5293;51.464;-2.566;2023-04-16T09:36:40;12.80;99.90
10492;DHT22;5293;51.464;-2.566;2023-04-16T09:39:05;12.90;99.90
10492;DHT22;5293;51.464;-2.566;2023-04-16T09:41:32;13.00;99.90
10492;DHT22;5293;51.464;-2.566;2023-04-16T09:44:04;13.00;99.90
10492;DHT22;5293;51.464;-2.566;2023-04-16T09:46:32;13.10;99.90
10492;DHT22;5293;51.464;-2.566;2023-04-16T09:49:07;13.20;99.90
10492;DHT22;5293;51.464;-2.566;2023-04-16T09:51:41;13.30;99.90
10492;DHT22;5293;51.464;-2.566;2023-04-16T09:54:08;13.30;99.90
10492;DHT22;5293;51.464;-2.566;2023-04-16T09:56:42;13.40;99.90
10492;DHT22;5293;51.464;-2.566;2023-04-16T09:59:16;13.40;99.90
10492;DHT22;5293;51.464;-2.566;2023-04-16T10:01:42;13.60;99.90
10492;DHT22;5293;51.464;-2.566;2023-04-16T10:04:07;13.70;99.90
10492;DHT22;5293;51.464;-2.566;2023-04-16T10:06:33;13.80;99.90
10492;DHT22;5293;51.464;-2.566;2023-04-16T10:08:59;13.90;99.90
10492;DHT22;5293;51.464;-2.566;2023-04-16T10:11:24;13.90;99.90
10492;DHT22;5293;51.464;-2.566;2023-04-16T10:13:50;14.00;99.90
10492;DHT22;5293;51.464;-2.566;2023-04-16T10:16:16;13.70;99.90
10492;DHT22;5293;51.464;-2.566;2023-04-16T10:18:44;13.60;99.90
10492;DHT22;5293;51.464;-2.566;2023-04-16T10:21:11;13.60;99.90
10492;DHT22;5293;51.464;-2.566;2023-04-16T10:23:41;13.60;99.90
10492;DHT22;5293;51.464;-2.566;2023-04-16T10:26:07;13.50;99.90
10492;DHT22;5293;51.464;-2.566;2023-04-16T10:28:33;13.50;99.90
10492;DHT22;5293;51.464;-2.566;2023-04-16T10:31:06;13.50;99.90
10492;DHT22;5293;51.464;-2.566;2023-04-16T10:33:38;13.50;99.90
10492;DHT22;5293;51.464;-2.566;2023-04-16T10:36:15;13.50;99.90
10492;DHT22;5293;51.464;-2.566;2023-04-16T10:38:51;13.50;99.90
10492;DHT22;5293;51.464;-2.566;2023-04-16T10:41:19;13.40;99.90
10492;DHT22;5293;51.464;-2.566;2023-04-16T10:43:47;13.40;99.90
10492;DHT22;5293;51.464;-2.566;2023-04-16T10:46:24;13.50;99.90
10492;DHT22;5293;51.464;-2.566;2023-04-16T10:48:55;13.30;99.90
10492;DHT22;5293;51.464;-2.566;2023-04-16T10:51:32;13.30;99.90
10492;DHT22;5293;51.464;-2.566;2023-04-16T10:54:17;13.30;99.90
10492;DHT22;5293;51.464;-2.566;2023-04-16T10:56:45;13.30;99.90
10492;DHT22;5293;51.464;-2.566;2023-04-16T10:59:12;13.30;99.90
10492;DHT22;5293;51.464;-2.566;2023-04-16T11:01:42;13.40;99.90
10492;DHT22;5293;51.464;-2.566;2023-04-16T11:07:06;13.40;99.90
10492;DHT22;5293;51.464;-2.566;2023-04-16T11:09:45;13.40;99.90
10492;DHT22;5293;51.464;-2.566;2023-04-16T11:12:12;13.40;99.90
10492;DHT22;5293;51.464;-2.566;2023-04-16T11:14:43;13.50;99.90
10492;DHT22;5293;51.464;-2.566;2023-04-16T11:17:11;13.60;99.90
10492;DHT22;5293;51.464;-2.566;2023-04-16T11:19:37;13.50;99.90
10492;DHT22;5293;51.464;-2.566;2023-04-16T11:22:03;13.60;99.90
10492;DHT22;5293;51.464;-2.566;2023-04-16T11:24:32;13.60;99.90
10492;DHT22;5293;51.464;-2.566;2023-04-16T11:26:58;13.70;99.90
10492;DHT22;5293;51.464;-2.566;2023-04-16T11:29:24;13.80;99.90
10492;DHT22;5293;51.464;-2.566;2023-04-16T11:31:53;13.90;99.90
10492;DHT22;5293;51.464;-2.566;2023-04-16T11:34:20;14.00;99.90
10492;DHT22;5293;51.464;-2.566;2023-04-16T11:36:47;14.00;99.90
10492;DHT22;5293;51.464;-2.566;2023-04-16T11:39:13;13.90;99.90
10492;DHT22;5293;51.464;-2.566;2023-04-16T11:41:46;13.90;99.90
10492;DHT22;5293;51.464;-2.566;2023-04-16T11:44:22;13.90;99.90
10492;DHT22;5293;51.464;-2.566;2023-04-16T11:46:49;13.90;99.90
10492;DHT22;5293;51.464;-2.566;2023-04-16T11:49:15;13.80;99.90
10492;DHT22;5293;51.464;-2.566;2023-04-16T11:51:46;13.80;99.90
10492;DHT22;5293;51.464;-2.566;2023-04-16T11:54:19;13.80;99.90
10492;DHT22;5293;51.464;-2.566;2023-04-16T11:56:46;13.70;99.90
10492;DHT22;5293;51.464;-2.566;2023-04-16T11:59:17;13.60;99.90
10492;DHT22;5293;51.464;-2.566;2023-04-16T12:01:48;13.50;99.90
10492;DHT22;5293;51.464;-2.566;2023-04-16T12:04:15;13.60;99.90
10492;DHT22;5293;51.464;-2.566;2023-04-16T12:07:04;13.70;99.90
10492;DHT22;5293;51.464;-2.566;2023-04-16T12:09:31;13.80;99.90
10492;DHT22;5293;51.464;-2.566;2023-04-16T12:11:57;13.90;99.90
10492;DHT22;5293;51.464;-2.566;2023-04-16T12:14:22;14.00;99.90
10492;DHT22;5293;51.464;-2.566;2023-04-16T12:16:48;14.00;99.90
10492;DHT22;5293;51.464;-2.566;2023-04-16T12:19:14;14.00;99.90
10492;DHT22;5293;51.464;-2.566;2023-04-16T12:21:41;14.10;99.90
10492;DHT22;5293;51.464;-2.566;2023-04-16T12:24:09;14.20;99.90
10492;DHT22;5293;51.464;-2.566;2023-04-16T12:26:39;14.30;99.90
10492;DHT22;5293;51.464;-2.566;2023-04-16T12:31:44;14.60;99.90
10492;DHT22;5293;51.464;-2.566;2023-04-16T12:34:11;14.60;99.90
10492;DHT22;5293;51.464;-2.566;2023-04-16T12:36:36;14.80;99.90
10492;DHT22;5293;51.464;-2.566;2023-04-16T12:39:02;15.00;99.90
10492;DHT22;5293;51.464;-2.566;2023-04-16T12:41:29;15.10;99.90
10492;DHT22;5293;51.464;-2.566;2023-04-16T12:44:14;15.20;99.90
10492;DHT22;5293;51.464;-2.566;2023-04-16T12:46:41;15.10;99.90
10492;DHT22;5293;51.464;-2.566;2023-04-16T12:49:08;15.20;99.90
10492;DHT22;5293;51.464;-2.566;2023-04-16T12:51:34;15.10;99.90
10492;DHT22;5293;51.464;-2.566;2023-04-16T12:54:02;15.00;99.90
10492;DHT22;5293;51.464;-2.566;2023-04-16T12:56:27;14.90;99.90
10492;DHT22;5293;51.464;-2.566;2023-04-16T12:58:53;14.70;99.90
10492;DHT22;5293;51.464;-2.566;2023-04-16T13:01:19;14.60;99.90
10492;DHT22;5293;51.464;-2.566;2023-04-16T13:03:45;14.70;99.90
10492;DHT22;5293;51.464;-2.566;2023-04-16T13:06:12;14.50;99.90
10492;DHT22;5293;51.464;-2.566;2023-04-16T13:08:39;14.50;99.90
10492;DHT22;5293;51.464;-2.566;2023-04-16T13:11:05;14.40;99.90
10492;DHT22;5293;51.464;-2.566;2023-04-16T13:13:31;14.40;99.90
10492;DHT22;5293;51.464;-2.566;2023-04-16T13:15:56;14.40;99.90
10492;DHT22;5293;51.464;-2.566;2023-04-16T13:18:23;14.30;99.90
10492;DHT22;5293;51.464;-2.566;2023-04-16T13:20:48;14.20;99.90
10492;DHT22;5293;51.464;-2.566;2023-04-16T13:23:14;14.20;99.90
10492;DHT22;5293;51.464;-2.566;2023-04-16T13:25:40;14.10;99.90
10492;DHT22;5293;51.464;-2.566;2023-04-16T13:28:05;14.00;99.90
10492;DHT22;5293;51.464;-2.566;2023-04-16T13:30:31;14.00;99.90
10492;DHT22;5293;51.464;-2.566;2023-04-16T13:32:58;13.90;99.90
10492;DHT22;5293;51.464;-2.566;2023-04-16T13:35:24;13.80;99.90
10492;DHT22;5293;51.464;-2.566;2023-04-16T13:37:50;13.60;99.90
10492;DHT22;5293;51.464;-2.566;2023-04-16T13:40:16;13.50;99.90
10492;DHT22;5293;51.464;-2.566;2023-04-16T13:42:42;13.50;99.90
10492;DHT22;5293;51.464;-2.566;2023-04-16T13:45:07;13.50;99.90
10492;DHT22;5293;51.464;-2.566;2023-04-16T13:47:39;13.50;99.90
10492;DHT22;5293;51.464;-2.566;2023-04-16T13:50:06;13.50;99.90
10492;DHT22;5293;51.464;-2.566;2023-04-16T13:52:31;13.50;99.90
10492;DHT22;5293;51.464;-2.566;2023-04-16T13:54:57;13.50;99.90
10492;DHT22;5293;51.464;-2.566;2023-04-16T13:57:23;13.50;99.90
10492;DHT22;5293;51.464;-2.566;2023-04-16T13:59:49;13.50;99.90
10492;DHT22;5293;51.464;-2.566;2023-04-16T14:02:14;13.50;99.90
10492;DHT22;5293;51.464;-2.566;2023-04-16T14:04:40;13.60;99.90
10492;DHT22;5293;51.464;-2.566;2023-04-16T14:07:06;13.60;99.90
10492;DHT22;5293;51.464;-2.566;2023-04-16T14:09:32;13.60;99.90
10492;DHT22;5293;51.464;-2.566;2023-04-16T14:11:57;13.70;99.90
10492;DHT22;5293;51.464;-2.566;2023-04-16T14:14:23;13.90;99.90
10492;DHT22;5293;51.464;-2.566;2023-04-16T14:16:50;13.90;99.90
10492;DHT22;5293;51.464;-2.566;2023-04-16T14:19:16;14.00;99.90
10492;DHT22;5293;51.464;-2.566;2023-04-16T14:21:41;14.20;99.90
10492;DHT22;5293;51.464;-2.566;2023-04-16T14:24:07;14.20;99.90
10492;DHT22;5293;51.464;-2.566;2023-04-16T14:26:33;14.30;99.90
10492;DHT22;5293;51.464;-2.566;2023-04-16T14:29:00;14.20;99.90
10492;DHT22;5293;51.464;-2.566;2023-04-16T14:31:25;14.20;99.90
10492;DHT22;5293;51.464;-2.566;2023-04-16T14:33:51;14.20;99.90
10492;DHT22;5293;51.464;-2.566;2023-04-16T14:36:17;14.20;99.90
10492;DHT22;5293;51.464;-2.566;2023-04-16T14:38:43;14.20;99.90
10492;DHT22;5293;51.464;-2.566;2023-04-16T14:41:08;14.20;99.90
10492;DHT22;5293;51.464;-2.566;2023-04-16T14:43:36;14.20;99.90
10492;DHT22;5293;51.464;-2.566;2023-04-16T14:46:02;14.20;99.90
10492;DHT22;5293;51.464;-2.566;2023-04-16T14:48:30;14.20;99.90
10492;DHT22;5293;51.464;-2.566;2023-04-16T14:50:56;14.20;99.90
10492;DHT22;5293;51.464;-2.566;2023-04-16T14:53:22;14.10;99.90
10492;DHT22;5293;51.464;-2.566;2023-04-16T14:55:50;14.10;99.90
10492;DHT22;5293;51.464;-2.566;2023-04-16T14:58:16;14.10;99.90
10492;DHT22;5293;51.464;-2.566;2023-04-16T15:00:41;14.10;99.90
10492;DHT22;5293;51.464;-2.566;2023-04-16T15:03:07;14.00;99.90
10492;DHT22;5293;51.464;-2.566;2023-04-16T15:05:34;13.90;99.90
10492;DHT22;5293;51.464;-2.566;2023-04-16T15:08:00;14.00;99.90
10492;DHT22;5293;51.464;-2.566;2023-04-16T15:10:26;14.00;99.90
10492;DHT22;5293;51.464;-2.566;2023-04-16T15:12:52;14.10;99.90
10492;DHT22;5293;51.464;-2.566;2023-04-16T15:15:18;14.10;99.90
10492;DHT22;5293;51.464;-2.566;2023-04-16T15:17:44;14.20;99.90
10492;DHT22;5293;51.464;-2.566;2023-04-16T15:20:10;14.20;99.90
10492;DHT22;5293;51.464;-2.566;2023-04-16T15:22:36;14.00;99.90
10492;DHT22;5293;51.464;-2.566;2023-04-16T15:25:03;14.10;99.90
10492;DHT22;5293;51.464;-2.566;2023-04-16T15:27:28;14.20;99.90
10492;DHT22;5293;51.464;-2.566;2023-04-16T15:29:54;14.30;99.90
10492;DHT22;5293;51.464;-2.566;2023-04-16T15:32:21;14.40;99.90